createdAt,value
2023-02-27T00:02:02.745Z,99372.25
2023-02-27T00:05:07.903Z,99384.81
2023-02-27T00:08:12.081Z,99373.81
2023-02-27T00:11:13.604Z,99385.44
2023-02-27T00:14:15.821Z,99387.22
2023-02-27T00:20:42.088Z,99393.47
2023-02-27T00:23:43.589Z,99394.00
2023-02-27T00:27:10.639Z,99395.13
2023-02-27T00:30:16.017Z,99397.34
2023-02-27T00:33:17.570Z,99386.72
2023-02-27T00:36:19.095Z,99371.16
2023-02-27T00:39:20.673Z,99382.13
2023-02-27T00:42:37.826Z,99385.56
2023-02-27T00:45:42.850Z,99376.44
2023-02-27T00:48:44.311Z,99393.03
2023-02-27T00:51:46.721Z,99387.59
2023-02-27T00:54:55.644Z,99397.84
2023-02-27T00:58:00.756Z,99385.06
2023-02-27T01:01:10.658Z,99372.78
2023-02-27T01:04:12.370Z,99380.50
2023-02-27T01:07:14.052Z,99387.28
2023-02-27T01:10:16.466Z,99390.25
2023-02-27T01:13:21.054Z,99392.66
2023-02-27T01:16:25.769Z,99381.81
2023-02-27T01:19:30.385Z,99377.59
2023-02-27T01:22:58.664Z,99374.66
2023-02-27T01:26:06.246Z,99371.44
2023-02-27T01:29:08.845Z,99356.63
2023-02-27T01:32:19.617Z,99368.84
2023-02-27T01:35:22.823Z,99377.13
2023-02-27T01:38:33.537Z,99379.06
2023-02-27T01:41:38.042Z,99374.34
2023-02-27T01:45:17.157Z,99372.00
2023-02-27T01:48:23.851Z,99367.91
2023-02-27T01:51:33.166Z,99376.28
2023-02-27T01:55:02.495Z,99360.59
2023-02-27T01:58:20.845Z,99364.22
2023-02-27T02:01:23.461Z,99356.56
2023-02-27T02:04:28.570Z,99353.22
2023-02-27T02:07:37.695Z,99351.06
2023-02-27T02:10:39.861Z,99357.88
2023-02-27T02:13:53.323Z,99354.09
2023-02-27T02:17:15.084Z,99362.69
2023-02-27T02:24:20.255Z,99369.72
2023-02-27T02:27:43.399Z,99371.22
2023-02-27T02:31:23.462Z,99364.91
2023-02-27T02:35:07.709Z,99373.44
2023-02-27T02:38:54.075Z,99357.06
2023-02-27T02:42:28.069Z,99356.09
2023-02-27T02:45:51.537Z,99349.94
2023-02-27T02:49:00.335Z,99328.50
2023-02-27T02:52:47.772Z,99339.97
2023-02-27T02:56:21.506Z,99340.06
2023-02-27T02:59:47.621Z,99344.69
2023-02-27T03:03:20.566Z,99345.97
2023-02-27T03:06:36.005Z,99358.50
2023-02-27T03:09:45.239Z,99359.97
2023-02-27T03:13:14.190Z,99354.66
2023-02-27T03:16:21.978Z,99354.25
2023-02-27T03:19:38.701Z,99366.16
2023-02-27T03:22:52.037Z,99356.25
2023-02-27T03:26:05.559Z,99360.38
2023-02-27T03:29:11.549Z,99356.00
2023-02-27T03:32:20.277Z,99374.34
2023-02-27T03:35:46.526Z,99370.94
2023-02-27T03:39:11.563Z,99365.25
2023-02-27T03:42:35.675Z,99379.88
2023-02-27T03:49:39.878Z,99377.53
2023-02-27T03:53:05.061Z,99384.84
2023-02-27T03:56:09.063Z,99376.72
2023-02-27T03:59:10.932Z,99369.91
2023-02-27T04:02:19.417Z,99384.03
2023-02-27T04:05:30.574Z,99389.28
2023-02-27T04:08:46.433Z,99390.63
2023-02-27T04:12:24.485Z,99401.63
2023-02-27T04:15:38.153Z,99402.44
2023-02-27T04:19:17.867Z,99404.75
2023-02-27T04:22:52.200Z,99407.31
2023-02-27T04:26:27.695Z,99408.69
2023-02-27T04:30:10.403Z,99416.22
2023-02-27T04:33:42.396Z,99409.72
2023-02-27T04:37:07.141Z,99410.53
2023-02-27T04:40:27.117Z,99412.91
2023-02-27T04:43:31.012Z,99410.25
2023-02-27T04:46:39.157Z,99414.00
2023-02-27T04:49:48.224Z,99413.09
2023-02-27T04:53:06.144Z,99408.56
2023-02-27T04:56:14.324Z,99402.44
2023-02-27T04:59:28.649Z,99408.16
2023-02-27T05:02:37.223Z,99398.06
2023-02-27T05:05:43.702Z,99393.28
2023-02-27T05:09:01.071Z,99406.06
2023-02-27T05:12:26.795Z,99408.00
2023-02-27T05:15:53.189Z,99414.75
2023-02-27T05:18:58.599Z,99410.22
2023-02-27T05:22:18.902Z,99416.22
2023-02-27T05:25:26.367Z,99412.97
2023-02-27T05:28:45.665Z,99418.41
2023-02-27T05:31:53.803Z,99410.56
2023-02-27T05:35:20.100Z,99419.16
2023-02-27T05:38:34.592Z,99410.13
2023-02-27T05:42:06.263Z,99425.66
2023-02-27T05:45:14.301Z,99413.84
2023-02-27T05:48:21.614Z,99422.56
2023-02-27T05:51:29.801Z,99427.50
2023-02-27T05:55:00.788Z,99440.72
2023-02-27T05:58:08.764Z,99424.41
2023-02-27T06:01:24.842Z,99444.50
2023-02-27T06:04:30.147Z,99448.19
2023-02-27T06:07:50.343Z,99449.34
2023-02-27T06:11:01.004Z,99448.31
2023-02-27T06:14:03.345Z,99446.25
2023-02-27T06:17:05.053Z,99453.59
2023-02-27T06:20:07.918Z,99443.94
2023-02-27T06:23:37.404Z,99441.88
2023-02-27T06:26:46.254Z,99455.66
2023-02-27T06:29:49.071Z,99456.13
2023-02-27T06:32:50.984Z,99442.56
2023-02-27T06:35:53.356Z,99460.72
2023-02-27T06:39:02.296Z,99465.19
2023-02-27T06:42:04.529Z,99459.31
2023-02-27T06:45:06.934Z,99461.41
2023-02-27T06:48:10.099Z,99457.34
2023-02-27T06:51:12.062Z,99473.66
2023-02-27T06:54:15.229Z,99482.53
2023-02-27T07:00:51.805Z,99468.50
2023-02-27T07:03:55.496Z,99485.97
2023-02-27T07:07:34.108Z,99497.13
2023-02-27T07:10:24.064Z,99502.50
2023-02-27T07:13:27.682Z,99493.34
2023-02-27T07:19:48.180Z,99485.97
2023-02-27T07:22:52.902Z,99498.63
2023-02-27T07:25:56.218Z,99491.72
2023-02-27T07:29:14.843Z,99500.00
2023-02-27T07:32:19.015Z,99492.56
2023-02-27T07:35:23.628Z,99493.00
2023-02-27T07:38:32.455Z,99499.72
2023-02-27T07:44:56.628Z,99507.84
2023-02-27T07:47:58.168Z,99505.00
2023-02-27T07:51:00.281Z,99510.38
2023-02-27T07:54:04.241Z,99493.84
2023-02-27T07:57:06.588Z,99505.22
2023-02-27T08:00:11.635Z,99490.09
2023-02-27T08:03:18.386Z,99510.72
2023-02-27T08:06:22.352Z,99511.56
2023-02-27T08:09:24.013Z,99516.03
2023-02-27T08:12:38.740Z,99516.38
2023-02-27T08:15:41.339Z,99508.75
2023-02-27T08:18:56.349Z,99517.25
2023-02-27T08:21:57.880Z,99521.09
2023-02-27T08:25:00.469Z,99515.38
2023-02-27T08:28:02.277Z,99521.16
2023-02-27T08:31:07.098Z,99520.28
2023-02-27T08:34:10.840Z,99520.66
2023-02-27T08:37:15.587Z,99526.31
2023-02-27T08:40:17.694Z,99527.84
2023-02-27T08:43:23.284Z,99532.56
2023-02-27T08:46:25.231Z,99525.91
2023-02-27T08:49:27.013Z,99530.25
2023-02-27T08:52:29.402Z,99531.75
2023-02-27T08:55:36.172Z,99521.69
2023-02-27T08:58:38.169Z,99540.91
2023-02-27T09:01:40.103Z,99528.19
2023-02-27T09:04:41.566Z,99517.13
2023-02-27T09:07:56.586Z,99528.78
2023-02-27T09:10:58.247Z,99537.16
2023-02-27T09:14:07.401Z,99526.53
2023-02-27T09:17:09.000Z,99521.97
2023-02-27T09:20:11.366Z,99530.25
2023-02-27T09:23:12.887Z,99511.00
2023-02-27T09:26:14.791Z,99522.72
2023-02-27T09:29:18.550Z,99521.38
2023-02-27T09:32:32.704Z,99530.34
2023-02-27T09:35:34.357Z,99516.75
2023-02-27T09:38:38.528Z,99524.66
2023-02-27T09:41:55.663Z,99522.22
2023-02-27T09:45:06.789Z,99518.56
2023-02-27T09:48:26.816Z,99509.13
2023-02-27T09:51:29.624Z,99521.19
2023-02-27T09:54:33.521Z,99542.16
2023-02-27T09:57:48.051Z,99556.22
2023-02-27T10:01:03.358Z,99563.19
2023-02-27T10:04:29.927Z,99560.34
2023-02-27T10:07:45.053Z,99543.47
2023-02-27T10:11:00.367Z,99561.88
2023-02-27T10:14:29.487Z,99553.38
2023-02-27T10:17:39.492Z,99565.91
2023-02-27T10:20:57.803Z,99555.50
2023-02-27T10:24:17.090Z,99580.69
2023-02-27T10:27:23.293Z,99579.25
2023-02-27T10:30:32.861Z,99586.38
2023-02-27T10:33:40.229Z,99596.84
2023-02-27T10:36:45.514Z,99608.06
2023-02-27T10:39:54.124Z,99602.25
2023-02-27T10:42:58.900Z,99581.50
2023-02-27T10:46:02.450Z,99593.16
2023-02-27T10:49:33.380Z,99597.25
2023-02-27T10:52:48.966Z,99592.47
2023-02-27T10:56:06.508Z,99599.75
2023-02-27T10:59:19.182Z,99595.69
2023-02-27T11:02:29.256Z,99613.16
2023-02-27T11:05:36.611Z,99602.75
2023-02-27T11:08:44.452Z,99611.31
2023-02-27T11:11:46.478Z,99565.66
2023-02-27T11:14:52.578Z,99577.72
2023-02-27T11:17:57.672Z,99573.06
2023-02-27T11:21:23.030Z,99587.13
2023-02-27T11:24:24.670Z,99596.44
2023-02-27T11:27:34.559Z,99588.94
2023-02-27T11:30:39.490Z,99598.16
2023-02-27T11:33:50.683Z,99596.16
2023-02-27T11:36:56.081Z,99592.44
2023-02-27T11:40:16.738Z,99579.75
2023-02-27T11:43:23.019Z,99587.34
2023-02-27T11:46:46.281Z,99587.16
2023-02-27T11:50:25.136Z,99594.06
2023-02-27T11:54:09.502Z,99599.34
2023-02-27T11:57:26.816Z,99587.41
2023-02-27T12:00:36.076Z,99573.66
2023-02-27T12:04:18.926Z,99589.19
2023-02-27T12:07:58.740Z,99575.22
2023-02-27T12:11:28.080Z,99618.94
2023-02-27T12:14:53.423Z,99608.78
2023-02-27T12:18:06.494Z,99598.81
2023-02-27T12:21:14.611Z,99579.63
2023-02-27T12:24:25.156Z,99568.06
2023-02-27T12:27:45.391Z,99572.25
2023-02-27T12:31:09.517Z,99570.88
2023-02-27T12:34:43.279Z,99572.22
2023-02-27T12:37:45.225Z,99558.53
2023-02-27T12:41:19.421Z,99569.72
2023-02-27T12:44:47.850Z,99591.97
2023-02-27T12:48:12.478Z,99594.72
2023-02-27T12:51:51.603Z,99593.56
2023-02-27T12:55:06.502Z,99595.41
2023-02-27T12:59:29.145Z,99584.66
2023-02-27T13:02:53.503Z,99581.19
2023-02-27T13:06:24.626Z,99573.97
2023-02-27T13:09:51.050Z,99569.78
2023-02-27T13:13:03.461Z,99570.56
2023-02-27T13:16:22.027Z,99575.53
2023-02-27T13:19:39.976Z,99586.44
2023-02-27T13:23:06.793Z,99563.72
2023-02-27T13:26:25.972Z,99574.59
2023-02-27T13:29:47.569Z,99603.94
2023-02-27T13:32:55.430Z,99592.97
2023-02-27T13:36:23.906Z,99609.03
2023-02-27T13:39:44.000Z,99607.78
2023-02-27T13:42:45.539Z,99587.59
2023-02-27T13:45:57.117Z,99591.00
2023-02-27T13:49:26.949Z,99600.88
2023-02-27T13:52:38.522Z,99592.19
2023-02-27T13:55:53.984Z,99593.09
2023-02-27T13:58:57.936Z,99583.25
2023-02-27T14:02:19.301Z,99593.38
2023-02-27T14:05:45.406Z,99602.88
2023-02-27T14:08:51.294Z,99596.53
2023-02-27T14:15:19.673Z,99598.94
2023-02-27T14:18:50.768Z,99597.03
2023-02-27T14:22:01.358Z,99606.97
2023-02-27T14:25:24.730Z,99606.06
2023-02-27T14:28:55.854Z,99618.06
2023-02-27T14:32:21.315Z,99626.06
2023-02-27T14:35:23.723Z,99619.81
2023-02-27T14:38:28.142Z,99614.81
2023-02-27T14:41:51.801Z,99621.22
2023-02-27T14:45:32.211Z,99610.72
2023-02-27T14:48:37.668Z,99641.22
2023-02-27T14:51:45.501Z,99621.78
2023-02-27T14:54:50.180Z,99622.41
2023-02-27T14:58:09.974Z,99630.13
2023-02-27T15:01:11.638Z,99620.41
2023-02-27T15:04:22.154Z,99629.78
2023-02-27T15:07:26.910Z,99623.19
2023-02-27T15:10:36.750Z,99628.84
2023-02-27T15:13:40.102Z,99616.97
2023-02-27T15:16:45.900Z,99610.91
2023-02-27T15:19:55.670Z,99611.84
2023-02-27T15:22:58.640Z,99618.31
2023-02-27T15:26:03.151Z,99612.47
2023-02-27T15:29:23.021Z,99611.75
2023-02-27T15:32:27.811Z,99619.09
2023-02-27T15:35:39.503Z,99593.84
2023-02-27T15:38:41.081Z,99608.53
2023-02-27T15:41:46.093Z,99618.22
2023-02-27T15:44:48.694Z,99619.91
2023-02-27T15:47:50.578Z,99620.13
2023-02-27T15:50:58.608Z,99620.50
2023-02-27T15:54:00.649Z,99621.34
2023-02-27T15:57:05.046Z,99620.88
2023-02-27T16:00:08.565Z,99613.16
2023-02-27T16:03:20.731Z,99622.75
2023-02-27T16:06:27.632Z,99607.53
2023-02-27T16:09:36.641Z,99628.66
2023-02-27T16:12:38.311Z,99618.25
2023-02-27T16:15:41.038Z,99616.13
2023-02-27T16:18:54.804Z,99616.19
2023-02-27T16:22:21.830Z,99616.19
2023-02-27T16:28:39.980Z,99621.00
2023-02-27T16:31:49.710Z,99622.34
2023-02-27T16:35:01.057Z,99623.66
2023-02-27T16:38:05.724Z,99635.19
2023-02-27T16:41:11.577Z,99636.53
2023-02-27T16:44:13.163Z,99634.09
2023-02-27T16:47:14.778Z,99630.63
2023-02-27T16:50:43.069Z,99637.03
2023-02-27T16:53:47.723Z,99639.72
2023-02-27T16:56:50.437Z,99641.03
2023-02-27T16:59:51.978Z,99636.50
2023-02-27T17:02:53.520Z,99649.31
2023-02-27T17:09:19.062Z,99641.78
2023-02-27T17:12:23.236Z,99663.44
2023-02-27T17:15:31.345Z,99665.81
2023-02-27T17:18:33.528Z,99660.44
2023-02-27T17:21:35.328Z,99668.97
2023-02-27T17:24:38.281Z,99678.59
2023-02-27T17:27:41.528Z,99675.13
2023-02-27T17:30:50.516Z,99668.44
2023-02-27T17:33:53.618Z,99681.81
2023-02-27T17:36:57.592Z,99680.75
2023-02-27T17:40:01.358Z,99681.75
2023-02-27T17:43:03.092Z,99699.66
2023-02-27T17:46:06.711Z,99684.44
2023-02-27T17:49:18.599Z,99698.75
2023-02-27T17:52:21.032Z,99709.91
2023-02-27T17:55:22.653Z,99712.00
2023-02-27T17:58:25.197Z,99719.75
2023-02-27T18:01:34.975Z,99719.34
2023-02-27T18:04:37.129Z,99740.16
2023-02-27T18:07:50.840Z,99740.63
2023-02-27T18:10:52.928Z,99736.59
2023-02-27T18:13:57.773Z,99740.25
2023-02-27T18:16:59.936Z,99746.66
2023-02-27T18:20:05.325Z,99760.66
2023-02-27T18:23:08.771Z,99760.16
2023-02-27T18:26:32.543Z,99766.19
2023-02-27T18:29:36.691Z,99765.94
2023-02-27T18:32:42.583Z,99773.09
2023-02-27T18:35:51.362Z,99752.34
2023-02-27T18:38:56.022Z,99752.63
2023-02-27T18:42:00.562Z,99750.53
2023-02-27T18:45:02.088Z,99758.25
2023-02-27T18:48:04.006Z,99763.34
2023-02-27T18:51:12.188Z,99770.50
2023-02-27T18:54:20.182Z,99754.00
2023-02-27T18:57:21.797Z,99755.59
2023-02-27T19:00:31.628Z,99759.34
2023-02-27T19:03:34.426Z,99749.13
2023-02-27T19:06:40.877Z,99755.00
2023-02-27T19:09:43.051Z,99770.22
2023-02-27T19:12:44.744Z,99773.44
2023-02-27T19:15:49.171Z,99766.50
2023-02-27T19:18:50.732Z,99770.47
2023-02-27T19:21:52.230Z,99763.00
2023-02-27T19:25:00.178Z,99764.59
2023-02-27T19:28:02.609Z,99777.16
2023-02-27T19:31:12.733Z,99766.50
2023-02-27T19:34:14.910Z,99776.22
2023-02-27T19:37:19.640Z,99770.94
2023-02-27T19:40:24.110Z,99770.94
2023-02-27T19:43:25.619Z,99781.47
2023-02-27T19:46:31.853Z,99775.66
2023-02-27T19:49:33.763Z,99757.25
2023-02-27T19:53:00.643Z,99769.53
2023-02-27T19:56:07.750Z,99779.88
2023-02-27T19:59:11.858Z,99775.81
2023-02-27T20:02:16.273Z,99778.63
2023-02-27T20:05:18.381Z,99781.84
2023-02-27T20:08:19.988Z,99781.00
2023-02-27T20:11:22.313Z,99782.25
2023-02-27T20:14:28.055Z,99776.84
2023-02-27T20:17:30.451Z,99789.22
2023-02-27T20:20:32.126Z,99796.84
2023-02-27T20:23:40.569Z,99778.72
2023-02-27T20:26:50.579Z,99781.69
2023-02-27T20:29:56.897Z,99793.09
2023-02-27T20:33:00.932Z,99779.53
2023-02-27T20:36:04.682Z,99785.34
2023-02-27T20:39:07.300Z,99779.66
2023-02-27T20:42:16.224Z,99779.66
2023-02-27T20:45:17.816Z,99766.81
2023-02-27T20:51:40.851Z,99765.91
2023-02-27T20:54:42.397Z,99760.59
2023-02-27T20:57:51.014Z,99758.94
2023-02-27T21:01:00.506Z,99753.44
2023-02-27T21:04:04.961Z,99746.72
2023-02-27T21:07:17.418Z,99761.38
2023-02-27T21:10:18.945Z,99756.47
2023-02-27T21:13:25.832Z,99754.81
2023-02-27T21:16:27.348Z,99758.25
2023-02-27T21:19:31.361Z,99743.84
2023-02-27T21:22:40.208Z,99738.53
2023-02-27T21:25:45.443Z,99732.50
2023-02-27T21:29:17.731Z,99735.25
2023-02-27T21:32:21.703Z,99733.63
2023-02-27T21:35:29.470Z,99722.94
2023-02-27T21:38:31.274Z,99718.13
2023-02-27T21:41:35.864Z,99722.78
2023-02-27T21:44:38.402Z,99718.13
2023-02-27T21:48:00.373Z,99722.31
2023-02-27T21:51:05.289Z,99719.31
2023-02-27T21:54:09.107Z,99720.78
2023-02-27T21:57:13.603Z,99724.16
2023-02-27T22:00:16.024Z,99717.31
2023-02-27T22:03:17.609Z,99715.22
2023-02-27T22:06:20.878Z,99716.81
2023-02-27T22:09:22.604Z,99713.63
2023-02-27T22:12:30.111Z,99717.13
2023-02-27T22:15:31.773Z,99716.47
2023-02-27T22:18:33.526Z,99725.22
2023-02-27T22:21:36.150Z,99726.25
2023-02-27T22:24:49.296Z,99731.13
2023-02-27T22:27:53.076Z,99729.06
2023-02-27T22:31:30.506Z,99736.06
2023-02-27T22:34:34.629Z,99740.72
2023-02-27T22:37:36.086Z,99742.50
2023-02-27T22:40:47.367Z,99734.94
2023-02-27T22:44:04.686Z,99740.38
2023-02-27T22:47:07.751Z,99738.19
2023-02-27T22:50:16.036Z,99735.81
2023-02-27T22:53:17.601Z,99731.25
2023-02-27T22:56:19.182Z,99722.53
2023-02-27T22:59:29.778Z,99714.03
2023-02-27T23:02:33.415Z,99719.78
2023-02-27T23:08:51.784Z,99724.16
2023-02-27T23:12:05.578Z,99717.38
2023-02-27T23:15:07.962Z,99720.41
2023-02-27T23:18:09.690Z,99724.91
2023-02-27T23:21:12.432Z,99727.19
2023-02-27T23:24:32.016Z,99714.66
2023-02-27T23:30:55.568Z,99730.22
2023-02-27T23:34:04.503Z,99725.25
2023-02-27T23:37:15.239Z,99733.44
2023-02-27T23:40:19.173Z,99730.00
2023-02-27T23:43:46.120Z,99721.69
2023-02-27T23:46:49.920Z,99729.31
2023-02-27T23:49:51.408Z,99739.44
2023-02-27T23:52:54.965Z,99725.97
2023-02-27T23:55:58.966Z,99725.97
2023-02-27T23:59:03.843Z,99729.31
